09MA weather

Kallander Field
Southborough, Massachusetts, United States

Public forecast

Using degrees Fahrenheit for public forecast. Weather courtesy of forecast.io.

METAR (pilot weather report)

Closest report is Laurence G Hanscom Field, 13.8 nm (25.6 km) NE. Retrieved 2019/09/19 16:51 UTC (1 hour ago):

KBED 191651Z 00000KT 10SM CLR 20/04 A3032 RMK AO2 SLP279 T02000039

TAF (pilot weather forecast)

Closest forecast is Laurence G Hanscom Field, 13.8 nm (25.6 km) NE. Retrieved 2019/09/19 12:48 UTC (5 hours ago):

TAF KBED 191146Z 1912/2012 03005KT P6SM SKC